createdAt,value
2023-02-23T00:00:49.740Z,99628.88
2023-02-23T00:03:16.461Z,99623.59
2023-02-23T00:05:43.314Z,99629.88
2023-02-23T00:08:10.942Z,99629.88
2023-02-23T00:10:37.775Z,99627.22
2023-02-23T00:13:04.985Z,99626.22
2023-02-23T00:15:31.684Z,99632.38
2023-02-23T00:17:58.772Z,99622.59
2023-02-23T00:20:28.118Z,99627.06
2023-02-23T00:22:56.567Z,99629.97
2023-02-23T00:25:24.814Z,99628.16
2023-02-23T00:27:52.495Z,99627.22
2023-02-23T00:30:20.221Z,99619.97
2023-02-23T00:32:50.324Z,99623.59
2023-02-23T00:35:19.069Z,99624.81
2023-02-23T00:37:47.408Z,99619.66
2023-02-23T00:40:18.599Z,99610.88
2023-02-23T00:42:46.224Z,99619.78
2023-02-23T00:45:14.076Z,99611.13
2023-02-23T00:47:42.640Z,99613.06
2023-02-23T00:50:16.083Z,99614.16
2023-02-23T00:52:43.444Z,99611.25
2023-02-23T00:55:12.360Z,99614.16
2023-02-23T00:57:39.864Z,99618.38
2023-02-23T01:00:18.976Z,99614.84
2023-02-23T01:02:46.711Z,99614.63
2023-02-23T01:05:14.058Z,99613.31
2023-02-23T01:07:40.726Z,99605.97
2023-02-23T01:10:19.218Z,99608.72
2023-02-23T01:12:49.579Z,99621.00
2023-02-23T01:15:17.618Z,99610.53
2023-02-23T01:17:45.118Z,99614.16
2023-02-23T01:20:20.518Z,99618.59
2023-02-23T01:22:49.797Z,99615.25
2023-02-23T01:25:17.660Z,99614.41
2023-02-23T01:27:44.957Z,99612.63
2023-02-23T01:30:14.855Z,99610.63
2023-02-23T01:32:43.313Z,99612.03
2023-02-23T01:35:11.122Z,99618.59
2023-02-23T01:37:42.553Z,99619.56
2023-02-23T01:40:16.375Z,99611.19
2023-02-23T01:42:46.029Z,99614.53
2023-02-23T01:45:27.250Z,99609.75
2023-02-23T01:47:57.673Z,99607.69
2023-02-23T01:50:26.569Z,99609.38
2023-02-23T01:52:53.431Z,99610.09
2023-02-23T01:55:24.185Z,99609.09
2023-02-23T01:57:54.753Z,99606.59
2023-02-23T02:00:25.718Z,99615.50
2023-02-23T02:02:52.680Z,99608.28
2023-02-23T02:05:20.043Z,99609.38
2023-02-23T02:07:58.479Z,99604.06
2023-02-23T02:10:53.352Z,99604.69
2023-02-23T02:13:22.232Z,99601.44
2023-02-23T02:16:28.309Z,99600.88
2023-02-23T02:19:18.434Z,99604.84
2023-02-23T02:22:27.672Z,99599.66
2023-02-23T02:25:13.073Z,99595.56
2023-02-23T02:28:08.843Z,99596.91
2023-02-23T02:31:08.030Z,99594.03
2023-02-23T02:33:43.959Z,99599.38
2023-02-23T02:36:38.580Z,99593.38
2023-02-23T02:39:23.771Z,99598.94
2023-02-23T02:41:57.212Z,99600.97
2023-02-23T02:44:38.876Z,99598.47
2023-02-23T02:47:08.600Z,99598.47
2023-02-23T02:49:46.495Z,99587.53
2023-02-23T02:52:21.594Z,99592.56
2023-02-23T02:54:53.350Z,99583.53
2023-02-23T02:57:24.049Z,99594.84
2023-02-23T03:00:09.392Z,99589.56
2023-02-23T03:02:59.573Z,99589.69
2023-02-23T03:05:53.161Z,99588.97
2023-02-23T03:08:38.246Z,99583.28
2023-02-23T03:11:29.587Z,99580.16
2023-02-23T03:14:32.191Z,99584.50
2023-02-23T03:17:23.382Z,99587.91
2023-02-23T03:20:29.578Z,99581.75
2023-02-23T03:23:18.977Z,99584.72
2023-02-23T03:26:15.164Z,99589.19
2023-02-23T03:29:14.709Z,99588.56
2023-02-23T03:32:12.428Z,99583.63
2023-02-23T03:35:19.446Z,99588.91
2023-02-23T03:38:11.013Z,99602.88
2023-02-23T03:40:58.344Z,99594.94
2023-02-23T03:43:49.112Z,99589.75
2023-02-23T03:46:35.290Z,99589.63
2023-02-23T03:49:25.880Z,99592.41
2023-02-23T03:52:15.849Z,99591.94
2023-02-23T03:55:13.219Z,99594.47
2023-02-23T03:58:00.113Z,99593.38
2023-02-23T04:00:51.624Z,99589.19
2023-02-23T04:03:37.697Z,99593.13
2023-02-23T04:06:26.449Z,99587.38
2023-02-23T04:09:12.739Z,99588.19
2023-02-23T04:12:08.652Z,99593.63
2023-02-23T04:14:46.075Z,99595.88
2023-02-23T04:17:13.229Z,99596.97
2023-02-23T04:19:49.275Z,99595.19
2023-02-23T04:22:16.084Z,99594.09
2023-02-23T04:24:42.905Z,99591.44
2023-02-23T04:27:09.654Z,99593.94
2023-02-23T04:29:36.389Z,99594.78
2023-02-23T04:32:04.981Z,99600.22
2023-02-23T04:34:32.126Z,99597.31
2023-02-23T04:36:59.296Z,99601.06
2023-02-23T04:39:26.182Z,99594.94
2023-02-23T04:41:53.049Z,99597.44
2023-02-23T04:44:20.829Z,99595.75
2023-02-23T04:46:47.606Z,99600.22
2023-02-23T04:49:14.307Z,99598.78
2023-02-23T04:51:41.126Z,99603.69
2023-02-23T04:54:07.917Z,99594.94
2023-02-23T04:56:34.674Z,99597.31
2023-02-23T04:59:01.479Z,99599.97
2023-02-23T05:01:29.573Z,99602.88
2023-02-23T05:04:00.283Z,99598.41
2023-02-23T05:06:27.044Z,99596.84
2023-02-23T05:08:53.793Z,99596.84
2023-02-23T05:11:20.719Z,99596.84
2023-02-23T05:13:47.608Z,99600.22
2023-02-23T05:16:14.477Z,99600.22
2023-02-23T05:18:41.244Z,99595.03
2023-02-23T05:21:08.944Z,99596.03
2023-02-23T05:23:36.305Z,99601.06
2023-02-23T05:26:05.789Z,99599.63
2023-02-23T05:28:34.564Z,99597.69
2023-02-23T05:31:03.645Z,99601.16
2023-02-23T05:33:31.622Z,99601.16
2023-02-23T05:35:58.824Z,99593.13
2023-02-23T05:38:27.165Z,99590.59
2023-02-23T05:40:53.900Z,99599.63
2023-02-23T05:43:20.618Z,99599.75
2023-02-23T05:45:47.387Z,99596.75
2023-02-23T05:48:14.538Z,99599.25
2023-02-23T05:50:41.172Z,99602.59
2023-02-23T05:53:07.862Z,99600.94
2023-02-23T05:55:35.777Z,99602.72
2023-02-23T05:58:02.519Z,99604.53
2023-02-23T06:00:29.299Z,99599.25
2023-02-23T06:02:56.240Z,99605.97
2023-02-23T06:05:23.086Z,99605.25
2023-02-23T06:07:49.831Z,99604.03
2023-02-23T06:10:16.753Z,99608.63
2023-02-23T06:12:43.454Z,99608.63
2023-02-23T06:15:10.505Z,99605.13
2023-02-23T06:17:37.206Z,99608.72
2023-02-23T06:20:05.263Z,99608.63
2023-02-23T06:22:31.920Z,99610.28
2023-02-23T06:24:58.601Z,99612.94
2023-02-23T06:27:25.812Z,99612.94
2023-02-23T06:29:52.510Z,99615.47
2023-02-23T06:32:19.400Z,99620.75
2023-02-23T06:34:48.678Z,99618.09
2023-02-23T06:37:15.404Z,99613.53
2023-02-23T06:39:42.088Z,99623.25
2023-02-23T06:42:08.814Z,99625.78
2023-02-23T06:44:35.717Z,99629.25
2023-02-23T06:47:05.617Z,99620.50
2023-02-23T06:49:32.734Z,99627.59
2023-02-23T06:51:59.506Z,99623.25
2023-02-23T06:54:26.476Z,99624.81
2023-02-23T06:56:55.611Z,99633.47
2023-02-23T06:59:22.322Z,99639.47
2023-02-23T07:01:49.056Z,99643.09
2023-02-23T07:04:16.971Z,99637.66
2023-02-23T07:06:43.802Z,99642.84
2023-02-23T07:09:10.566Z,99643.41
2023-02-23T07:11:37.206Z,99646.88
2023-02-23T07:14:03.830Z,99650.25
2023-02-23T07:16:30.772Z,99651.81
2023-02-23T07:18:57.473Z,99645.94
2023-02-23T07:21:24.135Z,99648.31
2023-02-23T07:23:50.852Z,99654.44
2023-02-23T07:26:18.404Z,99649.16
2023-02-23T07:28:45.200Z,99649.03
2023-02-23T07:31:12.007Z,99655.88
2023-02-23T07:33:38.724Z,99651.56
2023-02-23T07:36:05.556Z,99648.91
2023-02-23T07:38:32.269Z,99657.31
2023-02-23T07:40:58.974Z,99663.06
2023-02-23T07:43:25.647Z,99652.19
2023-02-23T07:45:52.379Z,99655.41
2023-02-23T07:48:19.663Z,99656.84
2023-02-23T07:50:46.533Z,99653.94
2023-02-23T07:53:13.376Z,99661.63
2023-02-23T07:55:40.225Z,99654.38
2023-02-23T07:58:07.573Z,99654.13
2023-02-23T08:00:36.541Z,99655.66
2023-02-23T08:03:03.219Z,99661.69
2023-02-23T08:05:29.976Z,99660.69
2023-02-23T08:07:58.335Z,99656.94
2023-02-23T08:10:25.524Z,99660.31
2023-02-23T08:12:52.212Z,99653.19
2023-02-23T08:15:18.923Z,99667.16
2023-02-23T08:17:45.672Z,99667.88
2023-02-23T08:20:12.438Z,99667.88
2023-02-23T08:22:48.782Z,99669.41
2023-02-23T08:25:17.193Z,99671.94
2023-02-23T08:27:43.913Z,99671.78
2023-02-23T08:30:11.357Z,99663.56
2023-02-23T08:32:38.112Z,99674.06
2023-02-23T08:35:05.431Z,99679.91
2023-02-23T08:37:32.219Z,99685.09
2023-02-23T08:40:00.623Z,99673.50
2023-02-23T08:42:27.785Z,99678.69
2023-02-23T08:44:54.435Z,99676.75
2023-02-23T08:47:21.962Z,99686.38
2023-02-23T08:49:51.454Z,99673.84
2023-02-23T08:52:18.076Z,99673.84
2023-02-23T08:54:44.792Z,99678.03
2023-02-23T08:57:12.685Z,99680.56
2023-02-23T08:59:41.070Z,99674.28
2023-02-23T09:02:12.770Z,99678.75
2023-02-23T09:04:41.898Z,99682.09
2023-02-23T09:07:10.350Z,99681.94
2023-02-23T09:09:37.118Z,99682.78
2023-02-23T09:12:04.193Z,99688.81
2023-02-23T09:14:32.128Z,99680.84
2023-02-23T09:16:58.814Z,99686.88
2023-02-23T09:19:27.515Z,99683.25
2023-02-23T09:21:54.168Z,99682.97
2023-02-23T09:24:21.752Z,99686.34
2023-02-23T09:26:49.237Z,99683.69
2023-02-23T09:29:16.014Z,99684.38
2023-02-23T09:31:43.652Z,99691.38
2023-02-23T09:34:12.659Z,99685.09
2023-02-23T09:36:39.394Z,99687.75
2023-02-23T09:39:06.144Z,99694.59
2023-02-23T09:41:38.823Z,99693.47
2023-02-23T09:44:45.784Z,99693.88
2023-02-23T09:47:40.311Z,99697.13
2023-02-23T09:50:21.274Z,99695.84
2023-02-23T09:52:51.692Z,99701.59
2023-02-23T09:55:18.441Z,99693.41
2023-02-23T09:57:47.918Z,99687.81
2023-02-23T10:00:19.702Z,99686.97
2023-02-23T10:03:04.466Z,99692.41
2023-02-23T10:05:34.081Z,99690.06
2023-02-23T10:08:09.284Z,99692.72
2023-02-23T10:10:52.670Z,99694.38
2023-02-23T10:13:38.338Z,99689.88
2023-02-23T10:16:15.130Z,99692.72
2023-02-23T10:19:04.022Z,99692.88
2023-02-23T10:21:38.246Z,99696.38
2023-02-23T10:24:25.336Z,99694.69
2023-02-23T10:27:00.553Z,99697.91
2023-02-23T10:29:32.901Z,99698.63
2023-02-23T10:32:25.966Z,99700.44
2023-02-23T10:34:56.457Z,99701.81
2023-02-23T10:37:24.338Z,99706.72
2023-02-23T10:39:51.710Z,99705.72
2023-02-23T10:42:23.408Z,99708.38
2023-02-23T10:44:50.416Z,99708.25
2023-02-23T10:47:20.229Z,99709.94
2023-02-23T10:49:52.288Z,99704.13
2023-02-23T10:52:22.853Z,99707.34
2023-02-23T10:54:51.164Z,99709.88
2023-02-23T10:57:30.209Z,99704.13
2023-02-23T11:00:06.357Z,99696.88
2023-02-23T11:02:33.823Z,99699.09
2023-02-23T11:05:01.342Z,99697.72
2023-02-23T11:07:31.004Z,99686.81
2023-02-23T11:09:59.018Z,99694.22
2023-02-23T11:12:30.271Z,99695.75
2023-02-23T11:14:58.479Z,99688.91
2023-02-23T11:17:27.816Z,99690.03
2023-02-23T11:20:06.932Z,99689.34
2023-02-23T11:22:37.310Z,99694.09
2023-02-23T11:25:14.847Z,99685.84
2023-02-23T11:27:46.216Z,99685.16
2023-02-23T11:30:14.399Z,99684.28
2023-02-23T11:32:43.077Z,99687.66
2023-02-23T11:35:20.468Z,99683.16
2023-02-23T11:37:47.792Z,99679.41
2023-02-23T11:40:24.214Z,99672.00
2023-02-23T11:43:09.837Z,99669.75
2023-02-23T11:45:45.611Z,99675.78
2023-02-23T11:48:34.601Z,99666.84
2023-02-23T11:51:01.884Z,99666.13
2023-02-23T11:53:32.890Z,99659.00
2023-02-23T11:56:02.635Z,99659.41
2023-02-23T11:58:39.244Z,99656.88
2023-02-23T12:01:13.413Z,99653.81
2023-02-23T12:04:00.355Z,99653.69
2023-02-23T12:06:38.878Z,99651.44
2023-02-23T12:09:18.448Z,99643.88
2023-02-23T12:11:50.665Z,99644.44
2023-02-23T12:14:33.511Z,99645.84
2023-02-23T12:17:06.222Z,99642.34
2023-02-23T12:19:41.654Z,99641.88
2023-02-23T12:22:14.166Z,99634.31
2023-02-23T12:24:49.260Z,99638.91
2023-02-23T12:27:22.494Z,99635.41
2023-02-23T12:30:18.806Z,99633.44
2023-02-23T12:32:57.832Z,99630.19
2023-02-23T12:35:31.103Z,99628.09
2023-02-23T12:38:06.321Z,99625.25
2023-02-23T12:40:36.028Z,99623.28
2023-02-23T12:43:08.937Z,99619.38
2023-02-23T12:45:43.307Z,99618.81
2023-02-23T12:48:30.944Z,99620.09
2023-02-23T12:50:59.093Z,99622.56
2023-02-23T12:53:42.736Z,99624.28
2023-02-23T12:56:37.146Z,99614.06
2023-02-23T12:59:21.815Z,99607.69
2023-02-23T13:01:58.544Z,99607.41
2023-02-23T13:04:44.069Z,99602.03
2023-02-23T13:07:21.631Z,99607.66
2023-02-23T13:10:16.105Z,99606.81
2023-02-23T13:13:04.863Z,99602.38
2023-02-23T13:15:49.418Z,99594.00
2023-02-23T13:18:45.600Z,99597.41
2023-02-23T13:21:29.234Z,99602.81
2023-02-23T13:24:19.450Z,99601.72
2023-02-23T13:26:52.171Z,99594.00
2023-02-23T13:29:31.675Z,99594.41
2023-02-23T13:32:00.972Z,99597.16
2023-02-23T13:34:31.519Z,99602.56
2023-02-23T13:36:59.648Z,99588.13
2023-02-23T13:39:34.855Z,99588.41
2023-02-23T13:42:19.929Z,99593.53
2023-02-23T13:44:55.527Z,99580.88
2023-02-23T13:47:45.360Z,99588.47
2023-02-23T13:50:30.414Z,99586.94
2023-02-23T13:53:01.283Z,99582.56
2023-02-23T13:55:32.648Z,99575.94
2023-02-23T13:58:07.154Z,99584.78
2023-02-23T14:00:34.313Z,99578.47
2023-02-23T14:03:08.411Z,99583.09
2023-02-23T14:05:45.026Z,99583.28
2023-02-23T14:08:22.930Z,99579.47
2023-02-23T14:10:52.835Z,99580.53
2023-02-23T14:13:24.675Z,99580.69
2023-02-23T14:16:11.151Z,99574.28
2023-02-23T14:19:03.409Z,99583.09
2023-02-23T14:21:43.097Z,99577.78
2023-02-23T14:24:20.252Z,99577.19
2023-02-23T14:27:11.464Z,99572.91
2023-02-23T14:30:05.256Z,99576.81
2023-02-23T14:32:38.766Z,99581.13
2023-02-23T14:35:05.739Z,99575.19
2023-02-23T14:37:34.937Z,99566.69
2023-02-23T14:40:12.695Z,99571.31
2023-02-23T14:42:40.696Z,99565.88
2023-02-23T14:45:20.299Z,99571.63
2023-02-23T14:47:48.676Z,99571.88
2023-02-23T14:50:25.060Z,99567.53
2023-02-23T14:52:54.499Z,99568.34
2023-02-23T14:55:26.734Z,99567.53
2023-02-23T14:57:54.695Z,99569.34
2023-02-23T15:00:24.662Z,99576.50
2023-02-23T15:03:09.239Z,99578.22
2023-02-23T15:05:44.248Z,99575.69
2023-02-23T15:08:17.478Z,99580.31
2023-02-23T15:10:46.001Z,99581.00
2023-02-23T15:13:29.240Z,99583.41
2023-02-23T15:16:00.904Z,99580.28
2023-02-23T15:18:37.858Z,99576.69
2023-02-23T15:21:11.388Z,99577.41
2023-02-23T15:23:38.551Z,99570.81
2023-02-23T15:26:39.053Z,99574.03
2023-02-23T15:29:14.683Z,99577.09
2023-02-23T15:31:52.097Z,99578.47
2023-02-23T15:34:23.036Z,99576.50
2023-02-23T15:36:54.005Z,99579.31
2023-02-23T15:39:47.585Z,99580.44
2023-02-23T15:42:15.501Z,99581.63
2023-02-23T15:44:44.906Z,99580.44
2023-02-23T15:47:28.428Z,99585.25
2023-02-23T15:50:08.681Z,99586.91
2023-02-23T15:52:40.248Z,99575.13
2023-02-23T15:55:08.724Z,99581.13
2023-02-23T15:57:52.346Z,99583.28
2023-02-23T16:00:32.618Z,99586.59
2023-02-23T16:03:02.450Z,99580.44
2023-02-23T16:05:38.284Z,99580.44
2023-02-23T16:08:23.897Z,99587.19
2023-02-23T16:10:55.030Z,99585.94
2023-02-23T16:13:22.299Z,99582.28
2023-02-23T16:15:52.721Z,99584.09
2023-02-23T16:18:23.060Z,99588.59
2023-02-23T16:20:55.867Z,99584.25
2023-02-23T16:23:34.166Z,99588.03
2023-02-23T16:26:09.060Z,99594.34
2023-02-23T16:28:41.838Z,99595.31
2023-02-23T16:31:09.211Z,99585.38
2023-02-23T16:34:01.550Z,99593.97
2023-02-23T16:36:38.603Z,99588.59
2023-02-23T16:39:10.185Z,99592.78
2023-02-23T16:41:37.040Z,99590.25
2023-02-23T16:44:06.050Z,99587.72
2023-02-23T16:46:55.222Z,99591.44
2023-02-23T16:49:23.322Z,99583.72
2023-02-23T16:51:51.009Z,99590.00
2023-02-23T16:54:17.783Z,99598.97
2023-02-23T16:56:44.494Z,99597.97
2023-02-23T16:59:14.331Z,99599.97
2023-02-23T17:01:41.024Z,99600.81
2023-02-23T17:04:15.626Z,99607.41
2023-02-23T17:06:43.404Z,99601.78
2023-02-23T17:09:13.094Z,99604.59
2023-02-23T17:11:42.099Z,99604.59
2023-02-23T17:14:11.033Z,99611.88
2023-02-23T17:16:37.732Z,99609.22
2023-02-23T17:19:04.473Z,99608.53
2023-02-23T17:21:33.778Z,99614.00
2023-02-23T17:24:02.874Z,99614.00
2023-02-23T17:26:29.710Z,99609.66
2023-02-23T17:28:56.499Z,99624.78
2023-02-23T17:31:25.799Z,99616.94
2023-02-23T17:33:55.127Z,99619.59
2023-02-23T17:36:24.059Z,99622.13
2023-02-23T17:38:50.846Z,99619.59
2023-02-23T17:41:19.868Z,99619.47
2023-02-23T17:43:47.052Z,99623.13
2023-02-23T17:46:16.780Z,99620.47
2023-02-23T17:48:49.460Z,99626.75
2023-02-23T17:51:16.920Z,99623.41
2023-02-23T17:53:43.721Z,99629.72
2023-02-23T17:56:10.747Z,99628.03
2023-02-23T17:58:39.342Z,99628.19
2023-02-23T18:01:07.035Z,99613.34
2023-02-23T18:03:36.235Z,99623.16
2023-02-23T18:06:04.777Z,99622.34
2023-02-23T18:08:31.860Z,99630.31
2023-02-23T18:10:58.855Z,99630.44
2023-02-23T18:13:26.891Z,99632.28
2023-02-23T18:15:58.288Z,99629.75
2023-02-23T18:18:25.052Z,99629.03
2023-02-23T18:20:53.612Z,99630.03
2023-02-23T18:23:20.847Z,99632.69
2023-02-23T18:25:48.290Z,99625.56
2023-02-23T18:28:15.984Z,99630.88
2023-02-23T18:30:42.823Z,99628.50
2023-02-23T18:33:09.804Z,99628.66
2023-02-23T18:35:39.548Z,99628.13
2023-02-23T18:38:10.462Z,99625.75
2023-02-23T18:40:38.486Z,99622.09
2023-02-23T18:43:05.589Z,99624.75
2023-02-23T18:45:32.482Z,99625.47
2023-02-23T18:47:59.528Z,99621.81
2023-02-23T18:50:26.552Z,99615.94
2023-02-23T18:52:56.699Z,99619.75
2023-02-23T18:55:23.736Z,99618.75
2023-02-23T18:57:52.549Z,99621.84
2023-02-23T19:00:20.061Z,99617.22
2023-02-23T19:02:47.091Z,99612.19
2023-02-23T19:05:14.983Z,99616.53
2023-02-23T19:07:41.680Z,99612.19
2023-02-23T19:10:12.111Z,99620.31
2023-02-23T19:12:45.018Z,99608.59
2023-02-23T19:15:12.316Z,99605.94
2023-02-23T19:17:39.236Z,99609.88
2023-02-23T19:20:15.698Z,99615.88
2023-02-23T19:22:43.032Z,99609.44
2023-02-23T19:25:14.268Z,99615.59
2023-02-23T19:27:41.617Z,99614.59
2023-02-23T19:30:10.125Z,99614.19
2023-02-23T19:32:39.507Z,99613.22
2023-02-23T19:35:09.116Z,99614.19
2023-02-23T19:37:35.931Z,99613.34
2023-02-23T19:40:03.827Z,99621.22
2023-02-23T19:42:32.577Z,99610.44
2023-02-23T19:44:59.712Z,99620.09
2023-02-23T19:47:26.457Z,99611.41
2023-02-23T19:49:54.841Z,99613.09
2023-02-23T19:52:23.090Z,99617.72
2023-02-23T19:54:49.864Z,99613.94
2023-02-23T19:57:16.592Z,99612.25
2023-02-23T19:59:43.345Z,99625.69
2023-02-23T20:02:10.929Z,99614.38
2023-02-23T20:04:37.857Z,99617.31
2023-02-23T20:07:04.567Z,99618.16
2023-02-23T20:09:31.227Z,99623.47
2023-02-23T20:11:58.050Z,99620.09
2023-02-23T20:14:24.982Z,99617.44
2023-02-23T20:16:51.743Z,99614.25
2023-02-23T20:19:19.741Z,99621.22
2023-02-23T20:21:46.439Z,99615.91
2023-02-23T20:24:13.601Z,99617.59
2023-02-23T20:26:40.288Z,99620.09
2023-02-23T20:29:10.875Z,99620.69
2023-02-23T20:31:41.513Z,99616.31
2023-02-23T20:34:10.790Z,99613.53
2023-02-23T20:36:37.495Z,99605.41
2023-02-23T20:39:05.619Z,99606.94
2023-02-23T20:41:32.828Z,99608.06
2023-02-23T20:44:01.187Z,99611.84
2023-02-23T20:46:30.545Z,99614.50
2023-02-23T20:48:59.197Z,99619.81
2023-02-23T20:51:26.486Z,99617.16
2023-02-23T20:53:53.228Z,99610.31
2023-02-23T20:56:23.410Z,99615.63
2023-02-23T20:58:50.233Z,99619.97
2023-02-23T21:01:20.962Z,99633.09
2023-02-23T21:03:51.131Z,99625.13
2023-02-23T21:06:22.501Z,99623.75
2023-02-23T21:08:50.175Z,99632.13
2023-02-23T21:11:18.013Z,99624.28
2023-02-23T21:13:45.422Z,99627.78
2023-02-23T21:16:14.784Z,99622.63
2023-02-23T21:18:42.541Z,99621.63
2023-02-23T21:21:10.196Z,99621.63
2023-02-23T21:23:38.657Z,99622.47
2023-02-23T21:26:13.137Z,99624.28
2023-02-23T21:28:46.357Z,99624.88
2023-02-23T21:31:14.200Z,99626.41
2023-02-23T21:33:42.403Z,99631.84
2023-02-23T21:36:10.668Z,99625.16
2023-02-23T21:38:38.626Z,99624.19
2023-02-23T21:41:05.906Z,99624.31
2023-02-23T21:43:36.797Z,99625.44
2023-02-23T21:46:08.756Z,99626.56
2023-02-23T21:48:35.497Z,99634.25
2023-02-23T21:51:07.410Z,99622.94
2023-02-23T21:53:34.923Z,99631.59
2023-02-23T21:56:18.597Z,99625.31
2023-02-23T21:58:50.168Z,99621.41
2023-02-23T22:01:24.061Z,99620.28
2023-02-23T22:03:51.215Z,99617.22
2023-02-23T22:06:20.698Z,99617.50
2023-02-23T22:08:50.179Z,99613.31
2023-02-23T22:11:20.195Z,99619.59
2023-02-23T22:13:48.578Z,99619.75
2023-02-23T22:16:18.888Z,99614.56
2023-02-23T22:18:46.559Z,99618.75
2023-02-23T22:21:13.378Z,99620.41
2023-02-23T22:23:41.610Z,99617.75
2023-02-23T22:26:08.981Z,99607.44
2023-02-23T22:28:36.117Z,99614.44
2023-02-23T22:31:04.449Z,99607.44
2023-02-23T22:33:31.238Z,99609.25
2023-02-23T22:36:01.309Z,99612.19
2023-02-23T22:38:28.006Z,99610.38
2023-02-23T22:40:55.272Z,99602.53
2023-02-23T22:43:22.118Z,99608.16
2023-02-23T22:45:54.589Z,99603.13
2023-02-23T22:48:23.537Z,99607.44
2023-02-23T22:50:50.988Z,99605.50
2023-02-23T22:53:17.919Z,99610.97
2023-02-23T22:55:49.082Z,99603.53
2023-02-23T22:58:16.124Z,99604.78
2023-02-23T23:01:01.961Z,99609.13
2023-02-23T23:03:29.939Z,99601.47
2023-02-23T23:05:56.892Z,99598.81
2023-02-23T23:08:24.153Z,99592.38
2023-02-23T23:10:50.932Z,99596.81
2023-02-23T23:13:17.671Z,99590.69
2023-02-23T23:15:44.435Z,99583.69
2023-02-23T23:18:20.612Z,99589.97
2023-02-23T23:20:49.071Z,99585.53
2023-02-23T23:23:17.088Z,99591.66
2023-02-23T23:25:47.537Z,99580.63
2023-02-23T23:28:14.364Z,99584.00
2023-02-23T23:30:47.204Z,99583.13
2023-02-23T23:33:14.136Z,99577.16
2023-02-23T23:35:42.673Z,99580.75
2023-02-23T23:38:09.464Z,99574.75
2023-02-23T23:40:37.692Z,99577.28
2023-02-23T23:43:07.522Z,99582.72
2023-02-23T23:45:38.253Z,99585.25
2023-02-23T23:48:09.373Z,99577.41
2023-02-23T23:50:36.067Z,99574.09
2023-02-23T23:53:04.554Z,99565.97
2023-02-23T23:55:31.588Z,99573.09
2023-02-23T23:58:00.123Z,99562.47
